createdAt,value
2017-09-26T00:02:24.730Z,19.25
2017-09-26T00:04:51.338Z,18.27
2017-09-26T00:07:18.053Z,18.58
2017-09-26T00:09:44.677Z,19.90
2017-09-26T00:12:11.290Z,17.62
2017-09-26T00:14:37.900Z,18.15
2017-09-26T00:17:04.523Z,16.48
2017-09-26T00:19:31.130Z,17.10
2017-09-26T00:21:57.788Z,18.62
2017-09-26T00:24:24.532Z,18.15
2017-09-26T00:26:51.151Z,17.08
2017-09-26T00:29:17.768Z,16.75
2017-09-26T00:31:44.447Z,18.50
2017-09-26T00:34:11.063Z,17.40
2017-09-26T00:36:37.679Z,17.58
2017-09-26T00:39:04.314Z,18.33
2017-09-26T00:41:30.931Z,20.05
2017-09-26T00:43:57.546Z,19.35
2017-09-26T00:46:24.268Z,19.00
2017-09-26T00:48:50.882Z,18.62
2017-09-26T00:51:17.517Z,19.90
2017-09-26T00:53:44.130Z,19.87
2017-09-26T00:56:10.825Z,21.02
2017-09-26T00:58:37.454Z,18.83
2017-09-26T01:01:06.622Z,19.17
2017-09-26T01:03:36.145Z,21.48
2017-09-26T01:06:12.680Z,19.55
2017-09-26T01:08:39.295Z,21.35
2017-09-26T01:11:05.909Z,23.30
2017-09-26T01:13:32.529Z,21.95
2017-09-26T01:15:59.142Z,19.45
2017-09-26T01:18:25.746Z,22.15
2017-09-26T01:20:52.369Z,19.60
2017-09-26T01:23:18.978Z,21.92
2017-09-26T01:25:45.592Z,19.48
2017-09-26T01:28:12.222Z,20.25
2017-09-26T01:30:38.830Z,18.45
2017-09-26T01:33:05.442Z,17.05
2017-09-26T01:35:32.067Z,17.87
2017-09-26T01:37:58.747Z,15.25
2017-09-26T01:40:25.349Z,17.42
2017-09-26T01:42:51.982Z,15.27
2017-09-26T01:45:18.594Z,16.45
2017-09-26T01:47:45.298Z,16.42
2017-09-26T01:50:11.926Z,16.70
2017-09-26T01:52:38.535Z,16.00
2017-09-26T01:55:05.151Z,13.93
2017-09-26T01:57:33.333Z,15.43
2017-09-26T01:59:59.950Z,15.13
2017-09-26T02:02:26.570Z,16.20
2017-09-26T02:04:53.194Z,14.48
2017-09-26T02:07:19.805Z,14.70
2017-09-26T02:09:46.410Z,15.70
2017-09-26T02:12:13.042Z,15.45
2017-09-26T02:14:39.762Z,14.35
2017-09-26T02:17:06.403Z,15.70
2017-09-26T02:19:33.027Z,14.95
2017-09-26T02:21:59.638Z,15.43
2017-09-26T02:24:26.278Z,15.65
2017-09-26T02:26:52.882Z,14.10
2017-09-26T02:29:19.598Z,15.13
2017-09-26T02:31:46.337Z,15.10
2017-09-26T02:34:12.947Z,15.45
2017-09-26T02:36:39.590Z,15.13
2017-09-26T02:39:06.185Z,17.33
2017-09-26T02:41:32.801Z,17.05
2017-09-26T02:43:59.410Z,17.73
2017-09-26T02:46:26.035Z,14.98
2017-09-26T02:48:52.655Z,16.15
2017-09-26T02:51:19.282Z,17.27
2017-09-26T02:53:45.989Z,17.42
2017-09-26T02:56:12.597Z,17.58
2017-09-26T02:58:39.230Z,17.90
2017-09-26T03:01:05.838Z,17.48
2017-09-26T03:03:32.540Z,19.77
2017-09-26T03:05:59.171Z,19.17
2017-09-26T03:08:25.780Z,18.65
2017-09-26T03:10:52.392Z,17.27
2017-09-26T03:13:19.009Z,20.25
2017-09-26T03:15:45.629Z,17.83
2017-09-26T03:18:12.278Z,17.12
2017-09-26T03:20:38.881Z,15.93
2017-09-26T03:23:05.487Z,20.37
2017-09-26T03:25:32.110Z,19.67
2017-09-26T03:27:58.722Z,22.13
2017-09-26T03:30:25.350Z,16.45
2017-09-26T03:32:51.957Z,18.90
2017-09-26T03:35:18.577Z,18.12
2017-09-26T03:37:45.197Z,16.40
2017-09-26T03:40:11.810Z,16.92
2017-09-26T03:42:38.414Z,17.17
2017-09-26T03:45:05.038Z,16.45
2017-09-26T03:47:31.646Z,16.52
2017-09-26T03:49:58.262Z,16.65
2017-09-26T03:52:24.918Z,15.40
2017-09-26T03:54:51.522Z,17.17
2017-09-26T03:57:18.135Z,17.70
2017-09-26T03:59:44.762Z,15.48
2017-09-26T04:02:11.374Z,16.52
2017-09-26T04:04:37.981Z,15.40
2017-09-26T04:07:04.607Z,16.58
2017-09-26T04:09:31.218Z,17.62
2017-09-26T04:11:57.827Z,20.08
2017-09-26T04:14:24.547Z,18.27
2017-09-26T04:16:51.153Z,18.05
2017-09-26T04:19:17.788Z,19.52
2017-09-26T04:21:44.417Z,20.52
2017-09-26T04:24:11.122Z,19.97
2017-09-26T04:26:37.730Z,19.37
2017-09-26T04:29:04.367Z,17.45
2017-09-26T04:31:31.042Z,18.67
2017-09-26T04:33:57.650Z,17.75
2017-09-26T04:36:24.314Z,17.25
2017-09-26T04:38:50.926Z,16.83
2017-09-26T04:41:17.564Z,17.85
2017-09-26T04:43:44.175Z,16.70
2017-09-26T04:46:10.816Z,15.15
2017-09-26T04:48:37.438Z,17.55
2017-09-26T04:51:04.053Z,18.55
2017-09-26T04:53:30.663Z,17.60
2017-09-26T04:55:57.290Z,15.80
2017-09-26T04:58:23.906Z,15.50
2017-09-26T05:00:50.510Z,16.60
2017-09-26T05:03:17.133Z,19.85
2017-09-26T05:05:43.743Z,18.50
2017-09-26T05:08:10.361Z,16.45
2017-09-26T05:10:37.058Z,18.00
2017-09-26T05:13:03.669Z,15.80
2017-09-26T05:15:30.279Z,19.05
2017-09-26T05:17:56.906Z,16.12
2017-09-26T05:20:23.510Z,18.05
2017-09-26T05:22:50.123Z,17.55
2017-09-26T05:25:16.749Z,18.20
2017-09-26T05:27:43.366Z,21.67
2017-09-26T05:30:10.075Z,21.70
2017-09-26T05:32:36.698Z,23.27
2017-09-26T05:35:03.315Z,22.62
2017-09-26T05:37:29.926Z,22.87
2017-09-26T05:39:56.630Z,20.58
2017-09-26T05:42:23.236Z,19.67
2017-09-26T05:44:49.854Z,21.10
2017-09-26T05:47:16.487Z,23.83
2017-09-26T05:49:43.098Z,20.95
2017-09-26T05:52:09.715Z,22.42
2017-09-26T05:54:36.342Z,20.98
2017-09-26T05:57:03.000Z,20.60
2017-09-26T05:59:29.622Z,28.75
2017-09-26T06:01:56.238Z,28.27
2017-09-26T06:04:22.852Z,27.02
2017-09-26T06:06:49.597Z,28.85
2017-09-26T06:09:16.206Z,27.48
2017-09-26T06:11:42.820Z,26.15
2017-09-26T06:14:09.454Z,26.08
2017-09-26T06:16:36.105Z,29.95
2017-09-26T06:19:02.744Z,32.53
2017-09-26T06:21:29.490Z,30.25
2017-09-26T06:23:56.097Z,21.17
2017-09-26T06:26:22.714Z,21.50
2017-09-26T06:28:49.342Z,17.95
2017-09-26T06:31:15.986Z,19.10
2017-09-26T06:33:42.615Z,17.67
2017-09-26T06:36:09.234Z,16.33
2017-09-26T06:38:35.855Z,14.80
2017-09-26T06:41:02.501Z,14.18
2017-09-26T06:43:29.184Z,15.00
2017-09-26T06:45:55.883Z,12.82
2017-09-26T06:48:22.516Z,13.70
2017-09-26T06:50:49.122Z,13.52
2017-09-26T06:53:15.842Z,14.10
2017-09-26T06:55:42.470Z,13.30
2017-09-26T06:58:09.086Z,14.15
2017-09-26T07:00:35.698Z,15.95
2017-09-26T07:03:02.330Z,15.50
2017-09-26T07:05:28.938Z,16.75
2017-09-26T07:07:55.634Z,17.08
2017-09-26T07:10:22.259Z,16.90
2017-09-26T07:12:48.874Z,14.10
2017-09-26T07:15:15.483Z,14.10
2017-09-26T07:17:42.230Z,14.48
2017-09-26T07:20:08.842Z,15.55
2017-09-26T07:22:35.457Z,13.82
2017-09-26T07:25:02.109Z,13.35
2017-09-26T07:27:28.713Z,15.63
2017-09-26T07:29:55.341Z,15.95
2017-09-26T07:32:21.958Z,22.60
2017-09-26T07:34:48.562Z,19.90
2017-09-26T07:37:15.198Z,16.45
2017-09-26T07:39:41.838Z,18.92
2017-09-26T07:42:08.447Z,22.77
2017-09-26T07:44:35.078Z,23.05
2017-09-26T07:47:01.693Z,23.48
2017-09-26T07:49:28.297Z,20.52
2017-09-26T07:51:54.930Z,22.52
2017-09-26T07:54:21.538Z,21.62
2017-09-26T07:56:48.155Z,25.08
2017-09-26T07:59:14.787Z,22.90
2017-09-26T08:01:41.404Z,21.65
2017-09-26T08:04:08.570Z,20.40
2017-09-26T08:06:35.839Z,21.98
2017-09-26T08:09:03.118Z,20.95
2017-09-26T08:11:29.751Z,22.77
2017-09-26T08:13:56.422Z,23.95
2017-09-26T08:16:23.067Z,23.40
2017-09-26T08:18:49.700Z,22.85
2017-09-26T08:21:16.310Z,21.92
2017-09-26T08:23:42.921Z,21.62
2017-09-26T08:26:09.554Z,19.02
2017-09-26T08:28:36.254Z,20.50
2017-09-26T08:31:02.865Z,20.35
2017-09-26T08:33:29.579Z,19.05
2017-09-26T08:35:56.190Z,20.35
2017-09-26T08:38:22.797Z,21.65
2017-09-26T08:40:49.454Z,19.50
2017-09-26T08:43:16.063Z,21.48
2017-09-26T08:45:42.669Z,22.00
2017-09-26T08:48:09.303Z,22.45
2017-09-26T08:50:35.910Z,20.17
2017-09-26T08:53:02.526Z,20.10
2017-09-26T08:55:29.150Z,18.95
2017-09-26T08:57:55.826Z,20.25
2017-09-26T09:00:22.438Z,19.95
2017-09-26T09:02:49.070Z,20.35
2017-09-26T09:05:15.679Z,20.85
2017-09-26T09:07:42.295Z,18.67
2017-09-26T09:10:08.959Z,21.00
2017-09-26T09:12:35.566Z,19.92
2017-09-26T09:15:02.178Z,19.35
2017-09-26T09:17:28.802Z,19.90
2017-09-26T09:19:55.474Z,22.00
2017-09-26T09:22:22.106Z,20.48
2017-09-26T09:24:48.795Z,23.73
2017-09-26T09:27:15.406Z,21.42
2017-09-26T09:29:42.033Z,22.60
2017-09-26T09:32:08.647Z,20.62
2017-09-26T09:34:35.278Z,20.70
2017-09-26T09:37:01.889Z,19.17
2017-09-26T09:39:28.583Z,19.40
2017-09-26T09:41:55.210Z,19.17
2017-09-26T09:44:21.826Z,20.50
2017-09-26T09:46:48.433Z,19.33
2017-09-26T09:49:15.070Z,18.75
2017-09-26T09:51:41.691Z,18.12
2017-09-26T09:54:08.317Z,15.57
2017-09-26T09:56:34.954Z,15.88
2017-09-26T09:59:01.556Z,17.15
2017-09-26T10:01:28.174Z,15.80
2017-09-26T10:03:54.810Z,18.23
2017-09-26T10:06:21.423Z,15.63
2017-09-26T10:08:48.092Z,14.13
2017-09-26T10:11:14.818Z,16.95
2017-09-26T10:13:41.434Z,16.70
2017-09-26T10:16:08.047Z,18.60
2017-09-26T10:18:34.668Z,17.73
2017-09-26T10:21:01.288Z,15.88
2017-09-26T10:23:27.981Z,16.67
2017-09-26T10:25:54.612Z,15.43
2017-09-26T10:28:21.226Z,15.00
2017-09-26T10:30:47.849Z,16.15
2017-09-26T10:33:14.482Z,16.20
2017-09-26T10:35:41.096Z,16.10
2017-09-26T10:38:07.729Z,16.37
2017-09-26T10:40:34.345Z,15.95
2017-09-26T10:43:00.958Z,16.08
2017-09-26T10:45:27.577Z,15.40
2017-09-26T10:47:54.197Z,16.08
2017-09-26T10:50:20.802Z,16.48
2017-09-26T10:52:47.426Z,15.32
2017-09-26T10:55:14.034Z,15.40
2017-09-26T10:57:40.650Z,14.95
2017-09-26T11:00:07.279Z,15.52
2017-09-26T11:02:33.885Z,14.35
2017-09-26T11:05:00.503Z,15.43
2017-09-26T11:07:27.134Z,15.55
2017-09-26T11:09:53.761Z,15.00
2017-09-26T11:12:20.365Z,14.57
2017-09-26T11:14:46.993Z,14.70
2017-09-26T11:17:13.610Z,16.05
2017-09-26T11:19:40.219Z,14.10
2017-09-26T11:22:06.915Z,14.18
2017-09-26T11:24:33.526Z,14.18
2017-09-26T11:27:00.150Z,14.18
2017-09-26T11:29:26.763Z,14.50
2017-09-26T11:31:53.374Z,15.77
2017-09-26T11:34:20.003Z,14.77
2017-09-26T11:36:46.637Z,14.45
2017-09-26T11:39:13.250Z,14.82
2017-09-26T11:41:39.899Z,14.10
2017-09-26T11:44:06.511Z,15.15
2017-09-26T11:46:33.121Z,12.30
2017-09-26T11:48:59.842Z,15.00
2017-09-26T11:51:26.454Z,14.10
2017-09-26T11:53:53.074Z,13.57
2017-09-26T11:56:19.715Z,14.52
2017-09-26T11:58:46.326Z,13.55
2017-09-26T12:01:12.943Z,13.20
2017-09-26T12:03:39.568Z,11.12
2017-09-26T12:06:06.186Z,11.70
2017-09-26T12:08:32.818Z,12.45
2017-09-26T12:10:59.438Z,13.40
2017-09-26T12:13:31.883Z,12.20
2017-09-26T12:15:58.602Z,11.40
2017-09-26T12:18:25.242Z,11.73
2017-09-26T12:20:51.990Z,11.90
2017-09-26T12:23:18.610Z,12.98
2017-09-26T12:25:45.266Z,13.20
2017-09-26T12:28:11.887Z,12.23
2017-09-26T12:30:38.498Z,12.50
2017-09-26T12:33:05.178Z,12.00
2017-09-26T12:35:31.806Z,13.13
2017-09-26T12:37:58.415Z,12.70
2017-09-26T12:40:25.021Z,11.57
2017-09-26T12:42:51.738Z,12.63
2017-09-26T12:45:18.373Z,12.80
2017-09-26T12:47:45.058Z,12.40
2017-09-26T12:50:11.686Z,11.57
2017-09-26T12:52:38.298Z,11.70
2017-09-26T12:55:04.914Z,12.87
2017-09-26T12:57:31.549Z,11.03
2017-09-26T12:59:58.164Z,12.30
2017-09-26T13:02:24.771Z,9.60
2017-09-26T13:04:51.403Z,10.20
2017-09-26T13:07:18.011Z,10.97
2017-09-26T13:09:44.621Z,10.70
2017-09-26T13:12:11.303Z,11.50
2017-09-26T13:14:37.906Z,9.87
2017-09-26T13:17:04.587Z,12.17
2017-09-26T13:19:31.217Z,11.43
2017-09-26T13:21:57.826Z,10.10
2017-09-26T13:24:24.438Z,10.90
2017-09-26T13:26:51.062Z,11.77
2017-09-26T13:29:17.679Z,10.63
2017-09-26T13:31:44.323Z,11.65
2017-09-26T13:34:11.226Z,10.45
2017-09-26T13:36:37.848Z,11.52
2017-09-26T13:39:04.453Z,9.18
2017-09-26T13:41:31.078Z,9.00
2017-09-26T13:43:57.685Z,9.75
2017-09-26T13:46:24.313Z,10.10
2017-09-26T13:48:50.930Z,9.98
2017-09-26T13:51:17.641Z,9.95
2017-09-26T13:53:44.449Z,9.50
2017-09-26T13:56:11.055Z,8.83
2017-09-26T13:58:37.667Z,11.37
2017-09-26T14:01:04.282Z,8.70
2017-09-26T14:03:30.887Z,8.43
2017-09-26T14:05:57.485Z,8.90
2017-09-26T14:08:24.111Z,8.80
2017-09-26T14:10:50.709Z,8.40
2017-09-26T14:13:17.314Z,8.13
2017-09-26T14:15:43.942Z,8.80
2017-09-26T14:18:10.551Z,8.67
2017-09-26T14:20:37.153Z,9.13
2017-09-26T14:23:03.785Z,7.40
2017-09-26T14:25:30.385Z,7.50
2017-09-26T14:27:57.018Z,7.43
2017-09-26T14:30:23.666Z,7.47
2017-09-26T14:32:50.265Z,8.77
2017-09-26T14:35:16.882Z,7.30
2017-09-26T14:37:43.481Z,8.47
2017-09-26T14:40:10.081Z,7.83
2017-09-26T14:42:36.710Z,8.07
2017-09-26T14:45:03.314Z,8.30
2017-09-26T14:47:29.920Z,7.93
2017-09-26T14:49:56.543Z,8.27
2017-09-26T14:52:23.151Z,11.17
2017-09-26T14:54:49.854Z,7.87
2017-09-26T14:57:16.468Z,7.90
2017-09-26T14:59:43.122Z,14.70
2017-09-26T15:02:09.749Z,9.53
2017-09-26T15:04:36.363Z,10.07
2017-09-26T15:07:02.980Z,11.93
2017-09-26T15:09:29.621Z,9.45
2017-09-26T15:11:56.318Z,9.27
2017-09-26T15:14:22.938Z,11.53
2017-09-26T15:16:49.558Z,8.47
2017-09-26T15:19:16.163Z,8.70
2017-09-26T15:21:42.790Z,10.00
2017-09-26T15:24:09.418Z,9.48
2017-09-26T15:26:36.034Z,9.65
2017-09-26T15:29:02.678Z,11.18
2017-09-26T15:31:29.285Z,10.13
2017-09-26T15:33:55.902Z,10.68
2017-09-26T15:36:22.521Z,10.80
2017-09-26T15:38:49.245Z,11.88
2017-09-26T15:41:15.987Z,11.48
2017-09-26T15:43:42.614Z,11.20
2017-09-26T15:46:09.309Z,9.73
2017-09-26T15:48:35.930Z,10.27
2017-09-26T15:51:02.547Z,11.68
2017-09-26T15:53:29.175Z,11.55
2017-09-26T15:55:56.125Z,11.23
2017-09-26T15:58:22.787Z,15.63
2017-09-26T16:00:49.442Z,10.10
2017-09-26T16:03:16.061Z,12.93
2017-09-26T16:05:42.690Z,18.17
2017-09-26T16:08:09.426Z,10.75
2017-09-26T16:10:36.042Z,12.70
2017-09-26T16:13:02.684Z,12.70
2017-09-26T16:15:29.286Z,13.10
2017-09-26T16:17:55.981Z,11.18
2017-09-26T16:20:22.623Z,11.70
2017-09-26T16:22:49.234Z,11.00
2017-09-26T16:25:15.850Z,11.93
2017-09-26T16:27:42.469Z,11.15
2017-09-26T16:30:09.087Z,12.50
2017-09-26T16:32:35.698Z,12.32
2017-09-26T16:35:02.335Z,12.75
2017-09-26T16:37:28.951Z,13.15
2017-09-26T16:39:55.572Z,13.52
2017-09-26T16:42:22.199Z,12.70
2017-09-26T16:44:48.804Z,14.52
2017-09-26T16:47:15.445Z,13.50
2017-09-26T16:49:42.090Z,12.27
2017-09-26T16:52:08.706Z,12.75
2017-09-26T16:54:35.322Z,13.75
2017-09-26T16:57:02.012Z,11.57
2017-09-26T16:59:28.642Z,12.48
2017-09-26T17:01:55.255Z,13.25
2017-09-26T17:04:21.922Z,14.25
2017-09-26T17:06:48.562Z,13.85
2017-09-26T17:09:15.170Z,12.88
2017-09-26T17:11:41.802Z,12.68
2017-09-26T17:14:08.417Z,12.05
2017-09-26T17:16:35.025Z,12.55
2017-09-26T17:19:01.663Z,13.73
2017-09-26T17:21:28.273Z,13.68
2017-09-26T17:23:54.891Z,12.50
2017-09-26T17:26:21.506Z,13.60
2017-09-26T17:28:48.116Z,14.30
2017-09-26T17:31:14.742Z,16.10
2017-09-26T17:33:41.381Z,17.65
2017-09-26T17:36:07.991Z,16.55
2017-09-26T17:38:34.623Z,17.15
2017-09-26T17:41:01.233Z,16.45
2017-09-26T17:43:27.846Z,17.60
2017-09-26T17:45:54.577Z,16.25
2017-09-26T17:48:21.226Z,16.40
2017-09-26T17:50:47.830Z,15.73
2017-09-26T17:53:14.462Z,16.23
2017-09-26T17:55:41.071Z,17.65
2017-09-26T17:58:07.678Z,17.40
2017-09-26T18:00:34.323Z,16.90
2017-09-26T18:03:00.934Z,16.58
2017-09-26T18:05:27.552Z,15.70
2017-09-26T18:07:54.199Z,15.23
2017-09-26T18:10:20.817Z,16.35
2017-09-26T18:12:47.434Z,15.55
2017-09-26T18:15:14.053Z,15.40
2017-09-26T18:17:40.666Z,15.07
2017-09-26T18:20:07.317Z,14.68
2017-09-26T18:22:33.959Z,16.80
2017-09-26T18:25:00.598Z,16.37
2017-09-26T18:27:27.205Z,16.15
2017-09-26T18:29:53.818Z,18.50
2017-09-26T18:32:20.442Z,15.48
2017-09-26T18:34:47.058Z,16.08
2017-09-26T18:37:13.679Z,17.40
2017-09-26T18:39:40.310Z,17.70
2017-09-26T18:42:06.966Z,16.95
2017-09-26T18:44:33.580Z,17.48
2017-09-26T18:47:00.219Z,16.65
2017-09-26T18:49:26.824Z,18.73
2017-09-26T18:51:53.437Z,19.12
2017-09-26T18:54:20.157Z,19.40
2017-09-26T18:56:46.778Z,17.60
2017-09-26T18:59:13.388Z,19.58
2017-09-26T19:01:40.026Z,17.30
2017-09-26T19:04:06.637Z,17.33
2017-09-26T19:06:33.251Z,16.92
2017-09-26T19:08:59.877Z,17.45
2017-09-26T19:11:26.494Z,17.30
2017-09-26T19:13:53.113Z,19.15
2017-09-26T19:16:19.738Z,17.33
2017-09-26T19:18:46.352Z,20.05
2017-09-26T19:21:12.992Z,19.50
2017-09-26T19:23:39.706Z,19.55
2017-09-26T19:26:06.370Z,21.75
2017-09-26T19:28:32.982Z,20.60
2017-09-26T19:30:59.654Z,21.40
2017-09-26T19:33:26.261Z,20.75
2017-09-26T19:35:52.870Z,21.98
2017-09-26T19:38:19.494Z,23.42
2017-09-26T19:40:46.112Z,21.37
2017-09-26T19:43:12.726Z,22.33
2017-09-26T19:45:39.363Z,21.17
2017-09-26T19:48:06.018Z,20.88
2017-09-26T19:50:32.629Z,23.00
2017-09-26T19:52:59.279Z,22.90
2017-09-26T19:55:25.934Z,23.10
2017-09-26T19:57:52.550Z,21.73
2017-09-26T20:00:19.174Z,22.17
2017-09-26T20:02:45.792Z,21.08
2017-09-26T20:05:12.488Z,22.75
2017-09-26T20:07:39.133Z,21.80
2017-09-26T20:10:05.777Z,21.62
2017-09-26T20:12:32.405Z,22.50
2017-09-26T20:14:59.018Z,21.85
2017-09-26T20:17:25.685Z,23.20
2017-09-26T20:19:52.429Z,22.90
2017-09-26T20:22:19.067Z,23.00
2017-09-26T20:24:45.677Z,23.95
2017-09-26T20:27:12.302Z,22.60
2017-09-26T20:29:38.982Z,22.77
2017-09-26T20:32:06.541Z,22.13
2017-09-26T20:34:33.169Z,21.62
2017-09-26T20:36:59.834Z,23.23
2017-09-26T20:39:26.462Z,22.02
2017-09-26T20:41:53.091Z,21.10
2017-09-26T20:44:19.697Z,23.60
2017-09-26T20:46:46.313Z,21.30
2017-09-26T20:49:12.948Z,25.05
2017-09-26T20:51:39.562Z,22.35
2017-09-26T20:54:06.174Z,22.33
2017-09-26T20:56:32.805Z,21.90
2017-09-26T20:58:59.413Z,22.23
2017-09-26T21:01:26.026Z,22.48
2017-09-26T21:03:52.651Z,22.13
2017-09-26T21:06:19.267Z,24.05
2017-09-26T21:08:45.942Z,23.60
2017-09-26T21:11:12.569Z,23.73
2017-09-26T21:13:39.178Z,22.40
2017-09-26T21:16:05.842Z,24.12
2017-09-26T21:18:32.470Z,24.02
2017-09-26T21:20:59.121Z,22.23
2017-09-26T21:23:25.738Z,22.98
2017-09-26T21:25:52.363Z,24.52
2017-09-26T21:28:18.975Z,25.15
2017-09-26T21:30:45.678Z,23.05
2017-09-26T21:33:12.286Z,23.80
2017-09-26T21:35:38.898Z,23.25
2017-09-26T21:38:05.526Z,24.10
2017-09-26T21:40:32.141Z,22.27
2017-09-26T21:42:58.754Z,24.37
2017-09-26T21:45:25.386Z,23.10
2017-09-26T21:47:52.045Z,23.52
2017-09-26T21:50:18.662Z,21.95
2017-09-26T21:52:45.293Z,23.08
2017-09-26T21:55:11.966Z,23.23
2017-09-26T21:57:39.263Z,24.50
2017-09-26T22:00:05.959Z,22.65
2017-09-26T22:02:32.748Z,23.95
2017-09-26T22:05:00.007Z,24.52
2017-09-26T22:07:27.048Z,22.55
2017-09-26T22:09:53.741Z,23.00
2017-09-26T22:12:20.482Z,24.63
2017-09-26T22:14:47.133Z,23.58
2017-09-26T22:17:13.749Z,24.73
2017-09-26T22:19:40.379Z,24.85
2017-09-26T22:22:07.042Z,23.92
2017-09-26T22:24:33.686Z,26.20
2017-09-26T22:27:00.318Z,23.70
2017-09-26T22:29:26.925Z,24.95
2017-09-26T22:31:53.534Z,23.70
2017-09-26T22:34:20.163Z,22.58
2017-09-26T22:36:46.770Z,24.70
2017-09-26T22:39:13.517Z,23.17
2017-09-26T22:41:40.134Z,24.15
2017-09-26T22:44:06.753Z,22.58
2017-09-26T22:46:33.383Z,24.23
2017-09-26T22:48:59.989Z,25.08
2017-09-26T22:51:26.598Z,23.17
2017-09-26T22:53:53.235Z,24.58
2017-09-26T22:56:19.849Z,24.20
2017-09-26T22:58:46.458Z,23.00
2017-09-26T23:01:13.086Z,24.02
2017-09-26T23:03:39.805Z,22.35
2017-09-26T23:06:06.422Z,21.70
2017-09-26T23:08:33.050Z,25.05
2017-09-26T23:10:59.664Z,23.90
2017-09-26T23:13:26.362Z,24.73
2017-09-26T23:15:52.990Z,23.98
2017-09-26T23:18:19.645Z,23.98
2017-09-26T23:20:46.253Z,23.00
2017-09-26T23:23:12.877Z,23.90
2017-09-26T23:25:39.495Z,22.67
2017-09-26T23:28:06.129Z,24.50
2017-09-26T23:30:32.735Z,26.70
2017-09-26T23:32:59.370Z,23.45
2017-09-26T23:35:26.110Z,22.65
2017-09-26T23:37:52.718Z,23.58
2017-09-26T23:40:19.330Z,22.83
2017-09-26T23:42:45.961Z,22.95
2017-09-26T23:45:12.574Z,21.95
2017-09-26T23:47:39.203Z,23.15
2017-09-26T23:50:05.830Z,22.52
2017-09-26T23:52:32.442Z,21.85
2017-09-26T23:54:59.122Z,23.08
2017-09-26T23:57:25.754Z,20.50
2017-09-26T23:59:52.366Z,21.80
